createdAt,value
2018-12-31T00:02:16.520Z,5.90
2018-12-31T00:04:48.448Z,4.37
2018-12-31T00:07:21.143Z,4.07
2018-12-31T00:09:53.501Z,5.83
2018-12-31T00:12:25.998Z,5.67
2018-12-31T00:14:58.183Z,5.67
2018-12-31T00:17:30.803Z,6.13
2018-12-31T00:20:04.678Z,6.53
2018-12-31T00:22:37.383Z,4.83
2018-12-31T00:25:09.589Z,6.37
2018-12-31T00:27:42.253Z,7.03
2018-12-31T00:30:14.707Z,5.20
2018-12-31T00:32:46.918Z,5.37
2018-12-31T00:35:18.983Z,5.27
2018-12-31T00:37:55.029Z,5.47
2018-12-31T00:40:28.819Z,4.10
2018-12-31T00:43:00.813Z,4.00
2018-12-31T00:45:33.283Z,3.80
2018-12-31T00:48:05.807Z,5.00
2018-12-31T00:50:37.707Z,3.57
2018-12-31T00:53:10.603Z,4.10
2018-12-31T00:55:43.073Z,3.80
2018-12-31T00:58:15.567Z,4.60
2018-12-31T01:00:47.607Z,4.67
2018-12-31T01:03:20.202Z,2.87
2018-12-31T01:05:52.680Z,4.50
2018-12-31T01:08:24.867Z,4.63
2018-12-31T01:10:57.392Z,4.60
2018-12-31T01:13:30.217Z,5.37
2018-12-31T01:16:02.317Z,6.37
2018-12-31T01:18:34.847Z,6.17
2018-12-31T01:21:06.717Z,6.07
2018-12-31T01:23:39.458Z,4.60
2018-12-31T01:26:11.782Z,4.17
2018-12-31T01:28:45.309Z,5.57
2018-12-31T01:31:17.812Z,5.13
2018-12-31T01:33:50.302Z,6.73
2018-12-31T01:36:22.642Z,5.77
2018-12-31T01:38:55.237Z,5.80
2018-12-31T01:41:29.032Z,7.63
2018-12-31T01:44:01.177Z,6.53
2018-12-31T01:46:33.751Z,7.33
2018-12-31T01:49:06.467Z,8.67
2018-12-31T01:51:38.927Z,7.23
2018-12-31T01:54:11.776Z,10.93
2018-12-31T01:56:43.867Z,7.80
2018-12-31T01:59:16.146Z,8.60
2018-12-31T02:01:47.055Z,10.70
2018-12-31T02:04:18.631Z,12.87
2018-12-31T02:06:50.481Z,9.33
2018-12-31T02:09:22.517Z,10.63
2018-12-31T02:11:55.051Z,11.97
2018-12-31T02:14:27.156Z,12.10
2018-12-31T02:16:59.290Z,6.77
2018-12-31T02:19:31.446Z,10.03
2018-12-31T02:22:03.711Z,13.77
2018-12-31T02:24:36.782Z,10.77
2018-12-31T02:27:08.275Z,4.83
2018-12-31T02:29:40.417Z,7.47
2018-12-31T02:32:14.456Z,9.93
2018-12-31T02:34:46.471Z,6.03
2018-12-31T02:37:18.447Z,5.73
2018-12-31T02:39:53.752Z,5.47
2018-12-31T02:42:27.107Z,5.40
2018-12-31T02:44:59.108Z,4.40
2018-12-31T02:47:31.627Z,3.80
2018-12-31T02:50:03.637Z,6.30
2018-12-31T02:52:35.447Z,5.97
2018-12-31T02:55:07.762Z,5.13
2018-12-31T02:57:41.013Z,5.10
2018-12-31T03:00:12.932Z,4.77
2018-12-31T03:02:45.022Z,6.03
2018-12-31T03:05:16.921Z,5.73
2018-12-31T03:07:49.121Z,6.07
2018-12-31T03:10:21.727Z,5.60
2018-12-31T03:12:53.717Z,4.63
2018-12-31T03:15:25.722Z,5.93
2018-12-31T03:17:58.193Z,6.17
2018-12-31T03:20:30.202Z,5.23
2018-12-31T03:23:02.228Z,5.43
2018-12-31T03:25:34.718Z,5.87
2018-12-31T03:28:06.612Z,5.90
2018-12-31T03:30:39.059Z,6.27
2018-12-31T03:33:11.077Z,6.73
2018-12-31T03:35:43.002Z,5.50
2018-12-31T03:38:15.234Z,7.10
2018-12-31T03:40:47.755Z,6.57
2018-12-31T03:43:22.568Z,6.33
2018-12-31T03:45:54.503Z,6.80
2018-12-31T03:48:27.088Z,6.63
2018-12-31T03:50:59.493Z,9.53
2018-12-31T03:53:31.957Z,7.27
2018-12-31T03:56:04.527Z,7.87
2018-12-31T03:58:37.033Z,6.33
2018-12-31T04:01:09.147Z,7.80
2018-12-31T04:03:41.518Z,13.27
2018-12-31T04:06:13.608Z,15.40
2018-12-31T04:08:45.898Z,11.03
2018-12-31T04:11:18.162Z,13.93
2018-12-31T04:13:51.544Z,10.90
2018-12-31T04:16:23.574Z,13.67
2018-12-31T04:18:55.774Z,7.47
2018-12-31T04:21:28.174Z,8.17
2018-12-31T04:24:00.256Z,7.80
2018-12-31T04:26:33.026Z,8.03
2018-12-31T04:29:04.917Z,7.53
2018-12-31T04:31:40.147Z,9.90
2018-12-31T04:34:12.682Z,9.87
2018-12-31T04:36:44.717Z,10.17
2018-12-31T04:39:16.617Z,11.37
2018-12-31T04:41:48.714Z,9.40
2018-12-31T04:44:21.872Z,7.60
2018-12-31T04:46:54.223Z,8.70
2018-12-31T04:49:26.777Z,8.23
2018-12-31T04:51:59.372Z,7.30
2018-12-31T04:54:31.427Z,7.53
2018-12-31T04:57:04.213Z,8.37
2018-12-31T04:59:37.374Z,8.33
2018-12-31T05:02:09.812Z,8.40
2018-12-31T05:04:41.777Z,7.37
2018-12-31T05:07:14.083Z,7.37
2018-12-31T05:09:46.489Z,7.57
2018-12-31T05:12:18.632Z,7.47
2018-12-31T05:14:50.877Z,8.03
2018-12-31T05:17:23.389Z,8.40
2018-12-31T05:19:55.397Z,6.43
2018-12-31T05:22:27.859Z,7.33
2018-12-31T05:24:59.708Z,7.10
2018-12-31T05:27:32.567Z,8.00
2018-12-31T05:30:04.832Z,8.50
2018-12-31T05:32:37.293Z,8.20
2018-12-31T05:35:09.368Z,8.90
2018-12-31T05:37:42.783Z,8.77
2018-12-31T05:40:16.042Z,8.07
2018-12-31T05:42:48.643Z,8.67
2018-12-31T05:45:21.042Z,8.83
2018-12-31T05:47:53.133Z,9.43
2018-12-31T05:50:25.223Z,8.87
2018-12-31T05:52:57.653Z,12.80
2018-12-31T05:55:30.105Z,6.70
2018-12-31T05:58:02.917Z,11.73
2018-12-31T06:00:36.248Z,7.13
2018-12-31T06:03:08.762Z,8.27
2018-12-31T06:05:40.658Z,7.93
2018-12-31T06:08:13.283Z,7.60
2018-12-31T06:10:45.763Z,7.03
2018-12-31T06:13:18.238Z,8.17
2018-12-31T06:15:50.403Z,9.27
2018-12-31T06:18:22.489Z,8.33
2018-12-31T06:20:54.753Z,7.43
2018-12-31T06:23:27.313Z,7.70
2018-12-31T06:25:59.542Z,7.13
2018-12-31T06:28:32.028Z,7.37
2018-12-31T06:31:05.353Z,8.00
2018-12-31T06:33:38.684Z,7.90
2018-12-31T06:36:10.588Z,8.03
2018-12-31T06:38:42.687Z,9.23
2018-12-31T06:41:14.989Z,8.90
2018-12-31T06:43:46.918Z,7.93
2018-12-31T06:46:20.497Z,7.43
2018-12-31T06:48:52.569Z,9.50
2018-12-31T06:51:25.122Z,7.83
2018-12-31T06:53:57.217Z,6.73
2018-12-31T06:56:29.268Z,9.57
2018-12-31T06:59:02.042Z,8.67
2018-12-31T07:01:34.242Z,7.63
2018-12-31T07:04:06.863Z,8.47
2018-12-31T07:06:39.467Z,8.07
2018-12-31T07:09:12.248Z,7.03
2018-12-31T07:11:44.629Z,7.20
2018-12-31T07:14:16.773Z,6.03
2018-12-31T07:16:48.878Z,5.80
2018-12-31T07:19:21.447Z,6.00
2018-12-31T07:21:53.919Z,5.03
2018-12-31T07:24:25.902Z,5.33
2018-12-31T07:26:58.493Z,6.00
2018-12-31T07:29:30.733Z,4.97
2018-12-31T07:32:02.767Z,5.80
2018-12-31T07:34:35.098Z,5.17
2018-12-31T07:37:08.228Z,4.90
2018-12-31T07:39:40.492Z,4.70
2018-12-31T07:42:13.082Z,4.60
2018-12-31T07:44:45.552Z,4.23
2018-12-31T07:47:19.793Z,4.93
2018-12-31T07:49:52.522Z,5.03
2018-12-31T07:52:25.042Z,4.67
2018-12-31T07:54:57.422Z,4.27
2018-12-31T07:57:29.348Z,4.40
2018-12-31T08:00:01.668Z,3.80
2018-12-31T08:02:35.338Z,4.00
2018-12-31T08:05:07.657Z,4.67
2018-12-31T08:07:39.660Z,4.23
2018-12-31T08:10:11.832Z,3.90
2018-12-31T08:12:44.357Z,3.83
2018-12-31T08:15:16.332Z,3.70
2018-12-31T08:17:48.418Z,4.33
2018-12-31T08:20:20.988Z,4.20
2018-12-31T08:22:52.882Z,3.50
2018-12-31T08:25:25.142Z,3.53
2018-12-31T08:27:57.298Z,3.97
2018-12-31T08:30:30.298Z,2.73
2018-12-31T08:33:03.745Z,2.93
2018-12-31T08:35:36.083Z,2.20
2018-12-31T08:38:08.408Z,2.93
2018-12-31T08:40:40.518Z,2.30
2018-12-31T08:43:12.447Z,2.17
2018-12-31T08:45:44.463Z,2.53
2018-12-31T08:48:17.836Z,2.20
2018-12-31T08:50:50.687Z,2.93
2018-12-31T08:53:24.182Z,2.07
2018-12-31T08:55:56.322Z,2.77
2018-12-31T08:58:28.864Z,3.00
2018-12-31T09:01:01.807Z,2.70
2018-12-31T09:03:34.548Z,3.00
2018-12-31T09:06:06.803Z,2.53
2018-12-31T09:08:39.174Z,3.40
2018-12-31T09:11:11.832Z,2.90
2018-12-31T09:13:44.047Z,2.70
2018-12-31T09:16:16.418Z,2.47
2018-12-31T09:18:49.019Z,2.83
2018-12-31T09:21:22.133Z,3.60
2018-12-31T09:23:54.399Z,3.73
2018-12-31T09:26:26.682Z,3.03
2018-12-31T09:28:58.943Z,2.90
2018-12-31T09:31:31.378Z,2.83
2018-12-31T09:34:04.147Z,2.60
2018-12-31T09:36:36.669Z,3.07
2018-12-31T09:39:11.042Z,2.23
2018-12-31T09:41:43.987Z,2.60
2018-12-31T09:44:16.552Z,2.63
2018-12-31T09:46:49.379Z,3.03
2018-12-31T09:49:22.017Z,2.67
2018-12-31T09:51:54.344Z,2.80
2018-12-31T09:54:26.890Z,2.47
2018-12-31T09:56:59.417Z,2.20
2018-12-31T09:59:31.605Z,2.73
2018-12-31T10:02:04.813Z,2.53
2018-12-31T10:04:36.868Z,2.33
2018-12-31T10:07:09.173Z,2.83
2018-12-31T10:09:42.133Z,2.20
2018-12-31T10:12:14.377Z,2.47
2018-12-31T10:15:39.102Z,2.40
2018-12-31T10:18:29.757Z,2.13
2018-12-31T10:21:02.663Z,2.37
2018-12-31T10:23:35.272Z,2.20
2018-12-31T10:26:08.714Z,2.40
2018-12-31T10:28:41.232Z,2.37
2018-12-31T10:31:13.937Z,2.20
2018-12-31T10:33:47.357Z,2.57
2018-12-31T10:36:19.538Z,2.60
2018-12-31T10:38:51.748Z,2.47
2018-12-31T10:41:24.098Z,2.70
2018-12-31T10:43:56.762Z,1.90
2018-12-31T10:46:29.937Z,2.30
2018-12-31T10:49:02.637Z,1.70
2018-12-31T10:51:35.457Z,1.90
2018-12-31T10:54:08.202Z,1.80
2018-12-31T10:56:40.582Z,2.10
2018-12-31T10:59:13.163Z,1.70
2018-12-31T11:01:45.913Z,1.93
2018-12-31T11:04:19.122Z,1.70
2018-12-31T11:06:52.571Z,2.10
2018-12-31T11:09:25.188Z,1.80
2018-12-31T11:11:58.254Z,1.73
2018-12-31T11:14:30.727Z,2.10
2018-12-31T11:17:03.352Z,2.20
2018-12-31T11:19:36.428Z,2.13
2018-12-31T11:22:09.522Z,1.87
2018-12-31T11:24:41.797Z,1.63
2018-12-31T11:27:14.182Z,2.20
2018-12-31T11:29:47.032Z,1.80
2018-12-31T11:32:19.357Z,2.10
2018-12-31T11:34:52.602Z,2.07
2018-12-31T11:37:24.999Z,1.83
2018-12-31T11:39:57.217Z,2.03
2018-12-31T11:42:29.802Z,2.00
2018-12-31T11:45:02.102Z,1.80
2018-12-31T11:47:34.282Z,2.10
2018-12-31T11:50:06.952Z,1.80
2018-12-31T11:52:39.427Z,1.70
2018-12-31T11:55:11.517Z,1.73
2018-12-31T11:57:43.967Z,2.10
2018-12-31T12:00:16.707Z,1.57
2018-12-31T12:02:49.014Z,1.97
2018-12-31T12:05:21.727Z,1.77
2018-12-31T12:07:53.879Z,1.90
2018-12-31T12:10:25.853Z,1.63
2018-12-31T12:12:57.973Z,2.00
2018-12-31T12:15:30.285Z,1.47
2018-12-31T12:18:02.595Z,1.80
2018-12-31T12:20:34.699Z,2.10
2018-12-31T12:23:07.168Z,1.43
2018-12-31T12:25:39.453Z,1.83
2018-12-31T12:28:11.553Z,1.70
2018-12-31T12:30:43.747Z,1.70
2018-12-31T12:33:15.993Z,1.90
2018-12-31T12:35:48.473Z,2.10
2018-12-31T12:38:20.753Z,2.03
2018-12-31T12:40:54.103Z,1.50
2018-12-31T12:43:26.157Z,1.87
2018-12-31T12:45:58.802Z,1.80
2018-12-31T12:48:31.023Z,2.10
2018-12-31T12:51:03.558Z,1.93
2018-12-31T12:53:36.038Z,1.50
2018-12-31T12:56:08.189Z,1.77
2018-12-31T12:58:40.516Z,1.83
2018-12-31T13:01:13.241Z,1.73
2018-12-31T13:03:46.043Z,1.90
2018-12-31T13:06:18.627Z,1.97
2018-12-31T13:08:51.354Z,2.40
2018-12-31T13:11:24.211Z,1.87
2018-12-31T13:13:56.528Z,2.10
2018-12-31T13:16:29.296Z,1.83
2018-12-31T13:19:01.512Z,1.93
2018-12-31T13:21:33.817Z,2.10
2018-12-31T13:24:06.329Z,2.27
2018-12-31T13:26:43.577Z,2.63
2018-12-31T13:29:13.667Z,2.53
2018-12-31T13:31:46.172Z,2.33
2018-12-31T13:34:19.228Z,2.00
2018-12-31T13:36:52.773Z,2.10
2018-12-31T13:39:25.324Z,2.30
2018-12-31T13:41:57.748Z,2.40
2018-12-31T13:44:30.044Z,2.57
2018-12-31T13:47:02.258Z,2.73
2018-12-31T13:49:34.993Z,2.60
2018-12-31T13:52:08.643Z,2.77
2018-12-31T13:54:41.187Z,2.97
2018-12-31T13:57:13.444Z,2.50
2018-12-31T13:59:46.073Z,2.80
2018-12-31T14:02:18.859Z,2.90
2018-12-31T14:04:51.552Z,2.73
2018-12-31T14:07:24.208Z,3.47
2018-12-31T14:09:56.667Z,2.97
2018-12-31T14:12:30.184Z,2.63
2018-12-31T14:15:02.434Z,3.47
2018-12-31T14:17:35.382Z,3.47
2018-12-31T14:20:07.972Z,3.50
2018-12-31T14:22:40.900Z,3.10
2018-12-31T14:25:13.403Z,3.53
2018-12-31T14:27:45.863Z,3.67
2018-12-31T14:30:18.178Z,3.20
2018-12-31T14:32:50.548Z,3.03
2018-12-31T14:35:24.720Z,3.03
2018-12-31T14:37:57.526Z,3.20
2018-12-31T14:40:30.209Z,3.57
2018-12-31T14:43:03.123Z,3.87
2018-12-31T14:45:35.493Z,3.57
2018-12-31T14:48:08.318Z,4.13
2018-12-31T14:50:41.033Z,3.90
2018-12-31T14:53:13.948Z,5.40
2018-12-31T14:55:46.323Z,4.30
2018-12-31T14:58:19.263Z,6.00
2018-12-31T15:00:51.618Z,5.13
2018-12-31T15:03:25.696Z,5.47
2018-12-31T15:05:58.692Z,6.13
2018-12-31T15:08:31.273Z,5.43
2018-12-31T15:11:03.836Z,5.87
2018-12-31T15:13:36.948Z,4.97
2018-12-31T15:16:09.753Z,5.17
2018-12-31T15:18:42.128Z,5.87
2018-12-31T15:21:14.393Z,5.10
2018-12-31T15:23:47.328Z,6.23
2018-12-31T15:26:19.678Z,7.17
2018-12-31T15:28:53.068Z,5.93
2018-12-31T15:31:25.806Z,6.87
2018-12-31T15:33:58.263Z,6.73
2018-12-31T15:36:30.723Z,5.67
2018-12-31T15:39:04.413Z,6.07
2018-12-31T15:41:36.646Z,6.03
2018-12-31T15:44:09.044Z,5.20
2018-12-31T15:46:41.773Z,5.37
2018-12-31T15:49:14.163Z,7.10
2018-12-31T15:51:46.403Z,6.13
2018-12-31T15:54:18.569Z,7.60
2018-12-31T15:56:50.878Z,6.10
2018-12-31T15:59:23.184Z,5.27
2018-12-31T16:01:55.213Z,5.23
2018-12-31T16:04:28.133Z,5.40
2018-12-31T16:07:00.618Z,5.33
2018-12-31T16:09:33.129Z,5.50
2018-12-31T16:12:05.218Z,5.63
2018-12-31T16:14:38.044Z,5.27
2018-12-31T16:17:10.703Z,6.23
2018-12-31T16:19:43.718Z,5.67
2018-12-31T16:22:15.925Z,5.23
2018-12-31T16:24:48.277Z,5.87
2018-12-31T16:27:23.623Z,5.50
2018-12-31T16:29:56.033Z,6.40
2018-12-31T16:32:28.263Z,6.40
2018-12-31T16:35:00.979Z,6.20
2018-12-31T16:37:33.573Z,7.00
2018-12-31T16:40:06.046Z,7.13
2018-12-31T16:42:39.038Z,6.30
2018-12-31T16:45:11.798Z,6.83
2018-12-31T16:47:44.207Z,6.17
2018-12-31T16:50:16.770Z,7.23
2018-12-31T16:52:49.088Z,8.00
2018-12-31T16:55:21.963Z,7.13
2018-12-31T16:57:54.398Z,7.57
2018-12-31T17:00:29.699Z,8.77
2018-12-31T17:03:01.932Z,8.80
2018-12-31T17:05:34.598Z,8.63
2018-12-31T17:08:08.013Z,9.77
2018-12-31T17:10:41.318Z,10.00
2018-12-31T17:13:14.673Z,10.23
2018-12-31T17:15:47.578Z,9.10
2018-12-31T17:18:21.164Z,10.93
2018-12-31T17:20:54.208Z,10.13
2018-12-31T17:23:26.759Z,10.17
2018-12-31T17:25:59.436Z,9.77
2018-12-31T17:28:32.608Z,10.20
2018-12-31T17:31:05.877Z,9.57
2018-12-31T17:33:38.344Z,11.17
2018-12-31T17:36:11.148Z,9.97
2018-12-31T17:38:44.105Z,10.83
2018-12-31T17:41:17.107Z,10.33
2018-12-31T17:43:49.408Z,11.07
2018-12-31T17:46:21.928Z,11.53
2018-12-31T17:48:55.030Z,11.10
2018-12-31T17:51:27.278Z,12.63
2018-12-31T17:53:59.544Z,10.03
2018-12-31T17:56:33.373Z,10.33
2018-12-31T17:59:06.241Z,10.77
2018-12-31T18:01:38.794Z,11.03
2018-12-31T18:04:11.068Z,10.53
2018-12-31T18:06:43.303Z,11.60
2018-12-31T18:09:15.823Z,11.47
2018-12-31T18:11:48.478Z,12.57
2018-12-31T18:14:20.624Z,10.93
2018-12-31T18:16:53.573Z,11.37
2018-12-31T18:19:27.233Z,12.03
2018-12-31T18:21:59.508Z,13.57
2018-12-31T18:24:32.358Z,12.17
2018-12-31T18:27:05.049Z,12.77
2018-12-31T18:29:37.650Z,13.47
2018-12-31T18:32:10.304Z,13.47
2018-12-31T18:34:43.403Z,12.93
2018-12-31T18:37:16.303Z,12.50
2018-12-31T18:39:49.218Z,12.60
2018-12-31T18:42:22.409Z,13.37
2018-12-31T18:44:54.613Z,12.23
2018-12-31T18:47:26.894Z,12.33
2018-12-31T18:49:59.449Z,12.67
2018-12-31T18:52:31.788Z,12.20
2018-12-31T18:55:04.324Z,10.80
2018-12-31T18:57:36.769Z,11.03
2018-12-31T19:00:09.999Z,10.43
2018-12-31T19:02:42.294Z,9.97
2018-12-31T19:05:15.089Z,10.73
2018-12-31T19:07:47.828Z,9.87
2018-12-31T19:10:20.538Z,10.23
2018-12-31T19:12:53.441Z,8.87
2018-12-31T19:15:25.809Z,9.37
2018-12-31T19:17:58.219Z,8.50
2018-12-31T19:20:30.715Z,10.03
2018-12-31T19:23:03.249Z,9.30
2018-12-31T19:25:35.343Z,7.97
2018-12-31T19:28:08.119Z,8.30
2018-12-31T19:30:40.509Z,11.07
2018-12-31T19:33:13.408Z,9.57
2018-12-31T19:35:45.699Z,10.67
2018-12-31T19:38:18.974Z,9.70
2018-12-31T19:40:51.818Z,8.23
2018-12-31T19:43:24.848Z,9.60
2018-12-31T19:45:57.028Z,8.63
2018-12-31T19:48:29.669Z,10.23
2018-12-31T19:51:02.739Z,9.40
2018-12-31T19:53:35.377Z,8.83
2018-12-31T19:56:07.668Z,10.27
2018-12-31T19:58:41.415Z,9.53
2018-12-31T20:01:13.588Z,9.17
2018-12-31T20:03:45.243Z,8.43
2018-12-31T20:06:16.386Z,9.63
2018-12-31T20:08:49.108Z,10.73
2018-12-31T20:11:21.940Z,10.50
2018-12-31T20:13:54.928Z,10.20
2018-12-31T20:16:27.147Z,9.90
2018-12-31T20:19:17.927Z,8.43
2018-12-31T20:21:50.208Z,9.53
2018-12-31T20:24:21.557Z,9.50
2018-12-31T20:26:52.692Z,8.87
2018-12-31T20:29:24.198Z,10.90
2018-12-31T20:31:56.052Z,9.80
2018-12-31T20:34:27.768Z,9.17
2018-12-31T20:37:00.277Z,8.40
2018-12-31T20:39:32.828Z,8.10
2018-12-31T20:42:06.263Z,9.70
2018-12-31T20:44:39.793Z,8.13
2018-12-31T20:47:12.083Z,8.77
2018-12-31T20:49:44.538Z,8.50
2018-12-31T20:52:17.082Z,7.77
2018-12-31T20:54:49.699Z,7.87
2018-12-31T20:57:23.223Z,8.17
2018-12-31T20:59:55.767Z,7.00
2018-12-31T21:02:28.063Z,7.13
2018-12-31T21:05:00.919Z,8.00
2018-12-31T21:07:33.813Z,7.17
2018-12-31T21:10:07.163Z,7.37
2018-12-31T21:12:40.297Z,7.00
2018-12-31T21:15:12.763Z,6.43
2018-12-31T21:17:45.388Z,6.30
2018-12-31T21:20:17.752Z,6.50
2018-12-31T21:22:50.118Z,5.30
2018-12-31T21:25:22.452Z,5.03
2018-12-31T21:27:54.613Z,4.80
2018-12-31T21:30:27.520Z,4.90
2018-12-31T21:32:59.953Z,4.73
2018-12-31T21:35:32.928Z,4.43
2018-12-31T21:38:05.146Z,5.47
2018-12-31T21:40:38.563Z,4.13
2018-12-31T21:43:10.908Z,5.60
2018-12-31T21:45:44.338Z,5.13
2018-12-31T21:48:16.499Z,4.60
2018-12-31T21:50:48.845Z,4.80
2018-12-31T21:53:21.053Z,3.80
2018-12-31T21:55:54.272Z,5.10
2018-12-31T21:58:26.647Z,3.90
2018-12-31T22:00:59.083Z,4.50
2018-12-31T22:03:31.428Z,4.47
2018-12-31T22:06:03.867Z,4.37
2018-12-31T22:08:37.545Z,4.83
2018-12-31T22:11:09.732Z,4.77
2018-12-31T22:13:42.019Z,4.80
2018-12-31T22:16:15.027Z,4.33
2018-12-31T22:18:47.407Z,4.30
2018-12-31T22:21:19.673Z,3.23
2018-12-31T22:23:52.002Z,4.23
2018-12-31T22:26:24.777Z,3.70
2018-12-31T22:28:57.079Z,3.60
2018-12-31T22:31:31.942Z,3.13
2018-12-31T22:34:04.278Z,3.67
2018-12-31T22:36:36.602Z,3.40
2018-12-31T22:39:09.549Z,3.77
2018-12-31T22:41:42.577Z,3.13
2018-12-31T22:44:15.444Z,3.60
2018-12-31T22:46:47.867Z,3.57
2018-12-31T22:49:19.940Z,3.53
2018-12-31T22:51:52.807Z,3.13
2018-12-31T22:54:24.947Z,2.87
2018-12-31T22:56:57.332Z,2.50
2018-12-31T22:59:29.747Z,3.00
2018-12-31T23:02:02.062Z,3.43
2018-12-31T23:04:34.162Z,2.83
2018-12-31T23:07:09.952Z,2.57
2018-12-31T23:09:42.277Z,2.83
2018-12-31T23:12:14.847Z,2.70
2018-12-31T23:14:47.747Z,3.00
2018-12-31T23:17:21.102Z,3.30
2018-12-31T23:19:53.417Z,3.07
2018-12-31T23:22:26.143Z,3.10
2018-12-31T23:24:58.262Z,3.20
2018-12-31T23:27:31.002Z,2.70
2018-12-31T23:30:03.491Z,2.60
2018-12-31T23:32:36.917Z,2.30
2018-12-31T23:35:10.032Z,2.57
2018-12-31T23:37:44.682Z,2.00
2018-12-31T23:40:17.162Z,2.47
2018-12-31T23:42:50.096Z,2.60
2018-12-31T23:45:23.486Z,2.40
2018-12-31T23:47:56.446Z,1.97
2018-12-31T23:50:28.813Z,2.20
2018-12-31T23:53:01.561Z,2.43
2018-12-31T23:55:34.276Z,1.70
2018-12-31T23:58:07.456Z,2.00
